Time;durP1;ratioP1;P1;durP2;ratioP2;P2;SDS_P1;SDS_P2;PMS_P1;PMS_P2;Temp;Humidity;BMP_temperature;BMP_pressure;BME280_temperature;BME280_humidity;BME280_pressure;Samples;Min_cycle;Max_cycle;Signal;HPM_P1;HPM_P2
2022/05/06 00:02:14;;;;;;;22.10;13.68;;;;;;;;;;5062663;28;20563;-66
2022/05/06 00:04:41;;;;;;;26.02;13.48;;;;;;;;;;5060067;28;20593;-65
2022/05/06 00:07:07;;;;;;;25.48;13.63;;;;;;;;;;5062512;28;20249;-66
2022/05/06 00:09:32;;;;;;;28.45;14.88;;;;;;;;;;5066604;28;20188;-66
2022/05/06 00:11:58;;;;;;;26.75;15.00;;;;;;;;;;5061737;28;20551;-66
2022/05/06 00:14:23;;;;;;;25.77;14.52;;;;;;;;;;5061070;28;20665;-66
2022/05/06 00:16:48;;;;;;;28.38;14.93;;;;;;;;;;5067354;28;20189;-66
2022/05/06 00:19:14;;;;;;;26.58;13.88;;;;;;;;;;5068277;28;20248;-66
2022/05/06 00:21:39;;;;;;;27.02;14.88;;;;;;;;;;5066103;28;20659;-66
2022/05/06 00:24:05;;;;;;;26.73;14.15;;;;;;;;;;5067921;28;20181;-66
2022/05/06 00:26:31;;;;;;;26.33;15.07;;;;;;;;;;5067130;28;20187;-66
2022/05/06 00:28:56;;;;;;;30.73;14.75;;;;;;;;;;5067632;28;20187;-65
2022/05/06 00:31:21;;;;;;;27.48;14.82;;;;;;;;;;5070052;28;20188;-66
2022/05/06 00:33:48;;;;;;;26.52;15.07;;;;;;;;;;5057821;28;20713;-67
2022/05/06 00:36:14;;;;;;;25.15;14.70;;;;;;;;;;5072447;28;20177;-66
2022/05/06 00:38:40;;;;;;;30.20;15.35;;;;;;;;;;5071515;28;20230;-66
2022/05/06 00:41:05;;;;;;;28.90;15.38;;;;;;;;;;5066381;28;20188;-66
2022/05/06 00:43:30;;;;;;;28.90;15.23;;;;;;;;;;5070048;28;20184;-66
2022/05/06 00:45:57;;;;;;;30.42;15.13;;;;;;;;;;5070022;28;20173;-67
2022/05/06 00:48:34;;;;;;;29.08;14.85;;;;;;;;;;5071457;28;20243;-66
2022/05/06 00:51:01;;;;;;;28.85;15.70;;;;;;;;;;5069290;28;20410;-66
2022/05/06 00:53:27;;;;;;;31.30;15.98;;;;;;;;;;5068637;28;20189;-66
2022/05/06 00:55:53;;;;;;;27.83;16.17;;;;;;;;;;5071257;28;20185;-66
2022/05/06 00:58:19;;;;;;;29.33;16.60;;;;;;;;;;5071562;28;20252;-66
2022/05/06 01:00:45;;;;;;;31.33;17.13;;;;;;;;;;5070765;28;20275;-67
2022/05/06 01:03:11;;;;;;;30.60;15.82;;;;;;;;;;5070898;28;20261;-66
2022/05/06 01:05:38;;;;;;;32.30;15.45;;;;;;;;;;5062875;28;20185;-67
2022/05/06 01:08:04;;;;;;;29.65;16.00;;;;;;;;;;5070332;28;20602;-66
2022/05/06 01:10:29;;;;;;;27.60;16.42;;;;;;;;;;5071019;28;20191;-67
2022/05/06 01:12:55;;;;;;;33.17;15.45;;;;;;;;;;5070135;28;20610;-67
2022/05/06 01:15:25;;;;;;;28.27;15.68;;;;;;;;;;5068685;28;20323;-67
2022/05/06 01:17:53;;;;;;;28.10;16.17;;;;;;;;;;5069132;28;20676;-67
2022/05/06 01:20:20;;;;;;;31.67;16.27;;;;;;;;;;5069398;28;20413;-66
2022/05/06 01:22:47;;;;;;;37.17;16.77;;;;;;;;;;5070572;28;20511;-66
2022/05/06 01:25:14;;;;;;;28.88;15.63;;;;;;;;;;5071059;28;20587;-66
2022/05/06 01:28:04;;;;;;;28.13;15.32;;;;;;;;;;5070400;28;20205;-66
2022/05/06 01:30:34;;;;;;;30.98;17.15;;;;;;;;;;5068159;28;20180;-66
2022/05/06 01:33:02;;;;;;;28.38;16.85;;;;;;;;;;5066935;28;20582;-66
2022/05/06 01:35:30;;;;;;;30.45;17.45;;;;;;;;;;5069146;28;20607;-66
2022/05/06 01:38:00;;;;;;;30.25;15.85;;;;;;;;;;5069922;28;20177;-67
2022/05/06 01:40:27;;;;;;;28.73;16.90;;;;;;;;;;5070419;28;20275;-66
2022/05/06 01:42:57;;;;;;;32.00;16.88;;;;;;;;;;5068653;28;20280;-66
2022/05/06 01:45:22;;;;;;;26.92;16.50;;;;;;;;;;5070178;28;20177;-66
2022/05/06 01:47:52;;;;;;;32.45;17.70;;;;;;;;;;5070520;28;20543;-65
2022/05/06 01:50:20;;;;;;;30.05;16.73;;;;;;;;;;5069990;28;20189;-66
2022/05/06 01:52:49;;;;;;;33.42;17.40;;;;;;;;;;5067620;28;20188;-67
2022/05/06 01:55:15;;;;;;;31.85;17.13;;;;;;;;;;5070232;28;20515;-67
2022/05/06 01:57:41;;;;;;;32.78;17.63;;;;;;;;;;5068937;28;20181;-66
2022/05/06 02:00:07;;;;;;;31.95;17.13;;;;;;;;;;5068543;28;20204;-66
2022/05/06 02:02:33;;;;;;;33.05;16.83;;;;;;;;;;5069098;28;20196;-66
2022/05/06 02:07:44;;;;;;;33.00;17.58;;;;;;;;;;5068840;28;20646;-66
2022/05/06 02:10:09;;;;;;;33.67;18.13;;;;;;;;;;5069997;28;20628;-66
2022/05/06 02:12:35;;;;;;;33.40;17.63;;;;;;;;;;5068508;28;20189;-66
2022/05/06 02:15:00;;;;;;;32.13;17.42;;;;;;;;;;5069827;28;20180;-67
2022/05/06 02:17:25;;;;;;;28.58;16.48;;;;;;;;;;5062810;28;20289;-67
2022/05/06 02:19:51;;;;;;;31.30;16.92;;;;;;;;;;5054140;28;20571;-66
2022/05/06 02:22:16;;;;;;;34.17;17.27;;;;;;;;;;5060013;28;20742;-66
2022/05/06 02:24:42;;;;;;;30.08;16.50;;;;;;;;;;5068022;28;20187;-66
2022/05/06 02:27:08;;;;;;;26.58;16.10;;;;;;;;;;5069687;28;20219;-66
2022/05/06 02:29:33;;;;;;;31.02;17.33;;;;;;;;;;5069620;28;20549;-67
2022/05/06 02:34:42;;;;;;;34.33;17.08;;;;;;;;;;5065883;28;20579;-66
2022/05/06 02:37:08;;;;;;;35.08;17.90;;;;;;;;;;5069934;28;20188;-66
2022/05/06 02:39:34;;;;;;;34.50;18.35;;;;;;;;;;5064946;28;20201;-66
2022/05/06 02:41:59;;;;;;;33.20;17.25;;;;;;;;;;5077394;28;20676;-66
2022/05/06 02:44:25;;;;;;;33.70;17.90;;;;;;;;;;5063229;28;20180;-66
2022/05/06 02:46:50;;;;;;;32.45;17.20;;;;;;;;;;5068422;28;20237;-67
2022/05/06 02:49:16;;;;;;;31.77;17.20;;;;;;;;;;5069789;28;20180;-66
2022/05/06 02:51:41;;;;;;;35.95;18.25;;;;;;;;;;5058686;28;20194;-67
2022/05/06 02:54:07;;;;;;;31.83;16.90;;;;;;;;;;5067980;28;20216;-66
2022/05/06 02:56:33;;;;;;;32.05;17.15;;;;;;;;;;5062032;28;20181;-66
2022/05/06 02:58:58;;;;;;;33.72;17.67;;;;;;;;;;5065733;28;20769;-66
2022/05/06 03:01:24;;;;;;;30.30;16.13;;;;;;;;;;5068612;28;20301;-66
2022/05/06 03:03:51;;;;;;;35.60;17.58;;;;;;;;;;5067424;28;20267;-66
2022/05/06 03:06:17;;;;;;;30.95;16.90;;;;;;;;;;5069229;28;20187;-65
2022/05/06 03:08:43;;;;;;;32.85;16.05;;;;;;;;;;5067214;28;20221;-65
2022/05/06 03:11:08;;;;;;;28.92;15.43;;;;;;;;;;5069629;28;20260;-66
2022/05/06 03:13:34;;;;;;;31.13;16.05;;;;;;;;;;5054227;28;20185;-65
2022/05/06 03:15:59;;;;;;;28.65;16.23;;;;;;;;;;5067688;28;20173;-67
2022/05/06 03:18:26;;;;;;;31.23;17.33;;;;;;;;;;5069682;28;20284;-66
2022/05/06 03:20:51;;;;;;;29.80;17.50;;;;;;;;;;5065383;28;20187;-66
2022/05/06 03:23:17;;;;;;;32.35;16.25;;;;;;;;;;5054919;28;20185;-66
2022/05/06 03:25:42;;;;;;;34.90;17.95;;;;;;;;;;5067923;28;20177;-66
2022/05/06 03:28:08;;;;;;;37.70;17.65;;;;;;;;;;5066851;28;20655;-66
2022/05/06 03:30:39;;;;;;;33.90;17.95;;;;;;;;;;5068244;28;20528;-66
2022/05/06 03:33:09;;;;;;;32.80;17.95;;;;;;;;;;5066494;28;20559;-66
2022/05/06 03:35:36;;;;;;;37.17;18.95;;;;;;;;;;5068714;28;20660;-66
2022/05/06 03:38:01;;;;;;;35.60;17.67;;;;;;;;;;5063953;28;20540;-65
2022/05/06 03:40:27;;;;;;;33.55;17.10;;;;;;;;;;5068712;28;20180;-65
2022/05/06 03:42:52;;;;;;;38.45;17.38;;;;;;;;;;5066321;28;20766;-65
2022/05/06 03:45:18;;;;;;;37.17;19.35;;;;;;;;;;5066946;28;20608;-66
2022/05/06 03:47:43;;;;;;;34.73;18.33;;;;;;;;;;5066782;28;20205;-66
2022/05/06 03:52:53;;;;;;;38.08;19.23;;;;;;;;;;5067819;28;20191;-66
2022/05/06 03:55:19;;;;;;;38.37;20.03;;;;;;;;;;5067229;28;20177;-66
2022/05/06 03:57:45;;;;;;;35.60;17.37;;;;;;;;;;5055152;28;20569;-67
2022/05/06 04:00:11;;;;;;;29.40;17.55;;;;;;;;;;5068125;28;20563;-67
2022/05/06 04:02:36;;;;;;;38.65;18.55;;;;;;;;;;5066583;28;20180;-66
2022/05/06 04:05:03;;;;;;;34.28;18.90;;;;;;;;;;5083393;28;20290;-66
2022/05/06 04:07:28;;;;;;;37.08;19.23;;;;;;;;;;5059077;28;20302;-66
2022/05/06 04:09:54;;;;;;;40.30;19.43;;;;;;;;;;5067569;28;20212;-66
2022/05/06 04:12:21;;;;;;;41.27;19.97;;;;;;;;;;5067861;28;20264;-66
2022/05/06 04:14:47;;;;;;;35.28;19.08;;;;;;;;;;5068260;28;20729;-66
2022/05/06 04:17:13;;;;;;;41.25;19.50;;;;;;;;;;5065595;28;20181;-66
2022/05/06 04:23:28;;;;;;;42.17;19.70;;;;;;;;;;5065076;28;20330;-66
2022/05/06 04:25:15;;;;;;;35.15;18.23;;;;;;;;;;5066244;28;20234;-66
2022/05/06 04:27:42;;;;;;;36.78;18.85;;;;;;;;;;5065067;28;20283;-65
2022/05/06 04:30:07;;;;;;;38.38;20.10;;;;;;;;;;5064969;28;20178;-66
2022/05/06 04:32:33;;;;;;;33.72;18.13;;;;;;;;;;5062910;28;20207;-66
2022/05/06 04:34:58;;;;;;;35.05;18.92;;;;;;;;;;5066719;28;20176;-66
2022/05/06 04:37:24;;;;;;;35.03;18.30;;;;;;;;;;5067238;28;20173;-67
2022/05/06 04:39:49;;;;;;;40.17;19.35;;;;;;;;;;5066899;28;20226;-67
2022/05/06 04:42:15;;;;;;;37.97;19.42;;;;;;;;;;5067222;28;20192;-67
2022/05/06 04:44:41;;;;;;;41.58;20.35;;;;;;;;;;5066358;28;20177;-67
2022/05/06 04:47:06;;;;;;;42.45;21.08;;;;;;;;;;5063766;28;20203;-67
2022/05/06 04:49:31;;;;;;;35.97;19.85;;;;;;;;;;5067986;28;20256;-67
2022/05/06 04:51:57;;;;;;;36.20;19.17;;;;;;;;;;5066433;28;20204;-65
2022/05/06 04:54:22;;;;;;;37.55;20.23;;;;;;;;;;5067705;28;20208;-66
2022/05/06 04:56:49;;;;;;;44.67;20.55;;;;;;;;;;5057628;28;20599;-66
2022/05/06 04:59:14;;;;;;;38.75;20.65;;;;;;;;;;5067539;28;20181;-67
2022/05/06 05:01:39;;;;;;;39.47;20.67;;;;;;;;;;5064177;28;20538;-66
2022/05/06 05:04:05;;;;;;;33.55;19.98;;;;;;;;;;5066624;28;20668;-66
2022/05/06 05:06:31;;;;;;;34.88;18.67;;;;;;;;;;5060357;28;20185;-66
2022/05/06 05:08:56;;;;;;;35.13;18.83;;;;;;;;;;5063377;28;20595;-66
2022/05/06 05:11:22;;;;;;;35.53;18.33;;;;;;;;;;5067541;28;20173;-66
2022/05/06 05:13:48;;;;;;;38.25;19.13;;;;;;;;;;5066042;28;20181;-67
2022/05/06 05:16:13;;;;;;;35.25;18.60;;;;;;;;;;5061940;28;20200;-67
2022/05/06 05:18:39;;;;;;;39.92;19.08;;;;;;;;;;5070660;28;20323;-67
2022/05/06 05:21:04;;;;;;;36.63;18.48;;;;;;;;;;5070627;28;20185;-67
2022/05/06 05:23:31;;;;;;;34.00;17.83;;;;;;;;;;5070811;28;20557;-66
2022/05/06 05:25:56;;;;;;;40.97;19.80;;;;;;;;;;5068809;28;20188;-67
2022/05/06 05:28:21;;;;;;;38.05;18.80;;;;;;;;;;5070452;28;20200;-66
2022/05/06 05:30:47;;;;;;;36.47;18.70;;;;;;;;;;5070168;28;20201;-68
2022/05/06 05:33:12;;;;;;;40.90;21.45;;;;;;;;;;5070198;28;20242;-67
2022/05/06 05:35:38;;;;;;;44.35;21.23;;;;;;;;;;5070980;28;20189;-67
2022/05/06 05:38:04;;;;;;;41.53;21.58;;;;;;;;;;5067618;28;20192;-67
2022/05/06 05:40:29;;;;;;;48.13;23.17;;;;;;;;;;5070621;28;20172;-67
2022/05/06 05:42:54;;;;;;;45.03;23.38;;;;;;;;;;5070017;28;20262;-67
2022/05/06 05:48:22;;;;;;;58.75;28.70;;;;;;;;;;5056731;28;20220;-67
2022/05/06 05:50:49;;;;;;;58.33;28.98;;;;;;;;;;5070069;28;20690;-67
2022/05/06 05:53:14;;;;;;;57.95;29.08;;;;;;;;;;5071182;28;20185;-67
2022/05/06 05:55:40;;;;;;;59.00;29.58;;;;;;;;;;5066721;28;20205;-67
2022/05/06 05:58:05;;;;;;;62.80;28.27;;;;;;;;;;5062183;28;20181;-66
2022/05/06 06:00:30;;;;;;;56.97;27.67;;;;;;;;;;5069625;28;20212;-67
2022/05/06 06:02:56;;;;;;;59.83;27.08;;;;;;;;;;5059749;28;20412;-67
2022/05/06 06:05:22;;;;;;;56.35;27.05;;;;;;;;;;5065903;28;20211;-67
2022/05/06 06:07:47;;;;;;;59.15;28.00;;;;;;;;;;5069523;28;20251;-67
2022/05/06 06:10:14;;;;;;;52.53;25.35;;;;;;;;;;5069904;28;20201;-67
2022/05/06 06:12:39;;;;;;;56.63;27.20;;;;;;;;;;5069713;28;20566;-66
2022/05/06 06:15:06;;;;;;;52.00;25.70;;;;;;;;;;5064502;28;20185;-67
2022/05/06 06:17:32;;;;;;;53.10;26.55;;;;;;;;;;5069204;28;20336;-67
2022/05/06 06:19:57;;;;;;;55.95;27.38;;;;;;;;;;5069220;28;20255;-67
2022/05/06 06:22:22;;;;;;;52.35;26.33;;;;;;;;;;5069503;28;20182;-66
2022/05/06 06:24:48;;;;;;;51.70;25.27;;;;;;;;;;5069029;28;20172;-66
2022/05/06 06:27:14;;;;;;;62.05;27.02;;;;;;;;;;5065312;28;20591;-66
2022/05/06 06:29:39;;;;;;;54.28;25.50;;;;;;;;;;5064886;28;20184;-66
2022/05/06 06:32:05;;;;;;;54.55;26.65;;;;;;;;;;5069393;28;20598;-66
2022/05/06 06:34:31;;;;;;;50.85;27.30;;;;;;;;;;5068690;28;20271;-67
2022/05/06 06:36:56;;;;;;;51.33;24.83;;;;;;;;;;5068690;28;20189;-67
2022/05/06 06:39:21;;;;;;;53.88;26.45;;;;;;;;;;5064642;28;20268;-66
2022/05/06 06:41:47;;;;;;;48.97;24.92;;;;;;;;;;5068773;28;20184;-65
2022/05/06 06:44:12;;;;;;;51.45;25.20;;;;;;;;;;5062039;28;20177;-67
2022/05/06 06:46:37;;;;;;;51.08;25.30;;;;;;;;;;5067840;28;20237;-65
2022/05/06 06:49:03;;;;;;;50.50;26.67;;;;;;;;;;5068844;28;20661;-67
2022/05/06 06:51:28;;;;;;;53.33;24.83;;;;;;;;;;5068882;28;20207;-67
2022/05/06 06:53:53;;;;;;;53.42;26.02;;;;;;;;;;5057286;28;20640;-67
2022/05/06 06:56:20;;;;;;;50.65;25.40;;;;;;;;;;5069388;28;20208;-67
2022/05/06 06:58:45;;;;;;;52.22;25.88;;;;;;;;;;5068210;28;20176;-67
2022/05/06 07:01:11;;;;;;;52.92;26.00;;;;;;;;;;5068569;28;20609;-67
2022/05/06 07:03:36;;;;;;;52.80;24.98;;;;;;;;;;5055215;28;20264;-66
2022/05/06 07:14:14;;;;;;;47.25;25.27;;;;;;;;;;5059261;28;20207;-67
2022/05/06 07:16:39;;;;;;;44.80;23.38;;;;;;;;;;5066566;28;20184;-66
2022/05/06 07:19:05;;;;;;;40.67;21.55;;;;;;;;;;5059894;28;20542;-66
2022/05/06 07:21:30;;;;;;;41.47;21.45;;;;;;;;;;5068322;28;20311;-66
2022/05/06 07:23:56;;;;;;;44.67;21.45;;;;;;;;;;5066634;28;20185;-66
2022/05/06 07:26:21;;;;;;;43.47;21.85;;;;;;;;;;5068774;28;20177;-66
2022/05/06 07:28:47;;;;;;;42.30;21.80;;;;;;;;;;5063964;28;20291;-67
2022/05/06 07:31:12;;;;;;;35.25;21.25;;;;;;;;;;5067234;28;20237;-67
2022/05/06 07:33:37;;;;;;;38.90;20.52;;;;;;;;;;5067225;28;20267;-66
2022/05/06 07:36:03;;;;;;;39.33;20.40;;;;;;;;;;5068273;28;20222;-66
2022/05/06 07:38:31;;;;;;;35.60;20.52;;;;;;;;;;5063762;28;20183;-65
2022/05/06 07:40:58;;;;;;;37.22;19.83;;;;;;;;;;5059917;28;20173;-66
2022/05/06 07:43:23;;;;;;;35.75;19.50;;;;;;;;;;5060706;28;20181;-65
2022/05/06 07:45:48;;;;;;;35.70;20.95;;;;;;;;;;5067674;28;20180;-67
2022/05/06 07:48:13;;;;;;;40.42;20.83;;;;;;;;;;5060785;28;20197;-66
2022/05/06 07:50:44;;;;;;;37.42;20.67;;;;;;;;;;5066992;28;20198;-67
2022/05/06 07:53:09;;;;;;;35.10;19.05;;;;;;;;;;5058234;28;20262;-67
2022/05/06 07:55:36;;;;;;;35.05;19.95;;;;;;;;;;5066673;28;20705;-67
2022/05/06 07:58:02;;;;;;;28.23;17.83;;;;;;;;;;5066848;28;20263;-67
2022/05/06 08:00:27;;;;;;;31.08;17.65;;;;;;;;;;5083274;28;20289;-66
2022/05/06 08:05:40;;;;;;;30.02;17.85;;;;;;;;;;5064843;28;20241;-66
2022/05/06 08:08:06;;;;;;;29.83;17.40;;;;;;;;;;5061127;28;20229;-66
2022/05/06 08:10:31;;;;;;;29.48;16.88;;;;;;;;;;5066137;28;20188;-68
2022/05/06 08:12:57;;;;;;;31.38;17.55;;;;;;;;;;5065029;28;20177;-67
2022/05/06 08:15:23;;;;;;;33.55;18.27;;;;;;;;;;5063681;28;20174;-67
2022/05/06 08:17:49;;;;;;;28.15;17.48;;;;;;;;;;5061561;28;20177;-67
2022/05/06 08:20:15;;;;;;;33.85;18.55;;;;;;;;;;5067822;28;20193;-66
2022/05/06 08:22:41;;;;;;;34.25;19.00;;;;;;;;;;5067364;28;20314;-66
2022/05/06 08:25:08;;;;;;;32.47;19.23;;;;;;;;;;5067687;28;20641;-66
2022/05/06 08:27:42;;;;;;;30.48;18.63;;;;;;;;;;5055389;28;20250;-67
2022/05/06 08:30:09;;;;;;;30.25;18.50;;;;;;;;;;5066014;28;20551;-67
2022/05/06 08:32:35;;;;;;;31.83;19.52;;;;;;;;;;5067884;28;20208;-67
2022/05/06 08:35:00;;;;;;;35.72;21.00;;;;;;;;;;5057160;28;20180;-67
2022/05/06 08:37:26;;;;;;;33.25;19.60;;;;;;;;;;5066533;28;20204;-67
2022/05/06 08:39:51;;;;;;;32.30;19.63;;;;;;;;;;5066533;28;20679;-67
2022/05/06 08:42:19;;;;;;;33.50;20.92;;;;;;;;;;5066348;28;20553;-67
2022/05/06 08:53:01;;;;;;;33.20;20.17;;;;;;;;;;5069199;28;20249;-66
2022/05/06 08:55:26;;;;;;;30.15;18.38;;;;;;;;;;5071057;28;20188;-66
2022/05/06 08:57:52;;;;;;;35.90;19.38;;;;;;;;;;5069217;28;20188;-67
2022/05/06 09:00:22;;;;;;;33.60;18.83;;;;;;;;;;5066980;28;20189;-66
2022/05/06 09:02:48;;;;;;;33.80;20.58;;;;;;;;;;5061685;28;20417;-66
2022/05/06 09:05:17;;;;;;;34.10;19.58;;;;;;;;;;5065571;28;20385;-66
2022/05/06 09:07:56;;;;;;;33.17;18.80;;;;;;;;;;5070566;28;20650;-66
2022/05/06 09:10:22;;;;;;;30.27;19.45;;;;;;;;;;5070865;28;20185;-66
2022/05/06 09:12:53;;;;;;;28.35;17.42;;;;;;;;;;5069959;28;20185;-66
2022/05/06 09:18:05;;;;;;;24.55;15.18;;;;;;;;;;5068567;28;20200;-66
2022/05/06 09:20:31;;;;;;;28.88;16.05;;;;;;;;;;5060973;28;20636;-66
2022/05/06 09:22:57;;;;;;;26.92;15.65;;;;;;;;;;5066885;28;20214;-66
2022/05/06 09:25:51;;;;;;;28.40;16.20;;;;;;;;;;5064062;28;20192;-66
2022/05/06 09:28:26;;;;;;;26.83;15.90;;;;;;;;;;5068145;28;20554;-66
2022/05/06 09:31:00;;;;;;;25.90;15.15;;;;;;;;;;5063025;28;20297;-66
2022/05/06 09:33:26;;;;;;;26.63;14.80;;;;;;;;;;5061852;28;20591;-67
2022/05/06 09:35:52;;;;;;;25.55;14.77;;;;;;;;;;5063409;28;20611;-66
2022/05/06 09:38:17;;;;;;;23.65;14.45;;;;;;;;;;5070270;28;20239;-65
2022/05/06 09:40:43;;;;;;;22.98;13.68;;;;;;;;;;5068648;28;20337;-69
2022/05/06 09:43:16;;;;;;;23.23;14.27;;;;;;;;;;5066178;28;20618;-66
2022/05/06 09:45:43;;;;;;;28.90;16.33;;;;;;;;;;5059552;28;20396;-66
2022/05/06 09:48:11;;;;;;;23.60;15.45;;;;;;;;;;5070160;28;20196;-66
2022/05/06 09:50:45;;;;;;;11.10;7.13;;;;;;;;;;5054790;28;20192;-67
2022/05/06 09:53:13;;;;;;;14.75;8.73;;;;;;;;;;5064810;28;20257;-67
2022/05/06 09:55:41;;;;;;;16.55;10.30;;;;;;;;;;5069324;28;20188;-67
2022/05/06 09:58:08;;;;;;;18.13;10.23;;;;;;;;;;5070871;28;20188;-67
2022/05/06 10:00:34;;;;;;;17.42;9.25;;;;;;;;;;5065483;28;20715;-67
2022/05/06 10:03:01;;;;;;;15.15;8.55;;;;;;;;;;5060334;28;20200;-68
2022/05/06 10:05:27;;;;;;;13.80;9.02;;;;;;;;;;5058686;28;20271;-67
2022/05/06 10:08:00;;;;;;;14.98;9.25;;;;;;;;;;5084899;28;20235;-67
2022/05/06 10:10:28;;;;;;;10.68;6.25;;;;;;;;;;5068795;28;20185;-67
2022/05/06 10:13:09;;;;;;;11.75;7.47;;;;;;;;;;5061070;28;20189;-67
2022/05/06 10:15:35;;;;;;;12.23;7.47;;;;;;;;;;5067698;28;20183;-67
2022/05/06 10:18:07;;;;;;;13.15;8.07;;;;;;;;;;5067640;28;20177;-68
2022/05/06 10:20:36;;;;;;;10.65;7.00;;;;;;;;;;5061719;28;20596;-67
2022/05/06 10:23:04;;;;;;;14.27;8.85;;;;;;;;;;5068950;28;20276;-67
2022/05/06 10:25:41;;;;;;;13.40;8.63;;;;;;;;;;5065771;28;20189;-68
2022/05/06 10:34:06;;;;;;;12.30;7.35;;;;;;;;;;5061562;28;20192;-67
2022/05/06 10:36:48;;;;;;;13.20;7.93;;;;;;;;;;5067327;28;20659;-67
2022/05/06 10:39:33;;;;;;;10.00;6.03;;;;;;;;;;5069071;28;20181;-67
2022/05/06 10:42:06;;;;;;;11.32;6.30;;;;;;;;;;5058305;28;20184;-68
2022/05/06 10:44:44;;;;;;;12.27;7.50;;;;;;;;;;5069292;28;20546;-68
2022/05/06 10:47:13;;;;;;;13.38;8.00;;;;;;;;;;5056975;28;20269;-68
2022/05/06 10:49:38;;;;;;;14.20;6.53;;;;;;;;;;5067434;28;20739;-68
2022/05/06 10:52:15;;;;;;;10.23;6.30;;;;;;;;;;5064764;28;20264;-67
2022/05/06 10:54:48;;;;;;;9.90;6.50;;;;;;;;;;5059671;28;20189;-67
2022/05/06 10:57:18;;;;;;;9.45;6.20;;;;;;;;;;5067164;28;20633;-67
2022/05/06 10:59:53;;;;;;;9.23;6.13;;;;;;;;;;5069148;28;20264;-68
2022/05/06 11:02:36;;;;;;;8.48;5.80;;;;;;;;;;5064879;28;20203;-68
2022/05/06 11:05:04;;;;;;;8.98;5.80;;;;;;;;;;5057495;28;20191;-67
2022/05/06 11:07:31;;;;;;;7.97;6.38;;;;;;;;;;5068509;28;20237;-68
2022/05/06 11:09:57;;;;;;;7.20;5.32;;;;;;;;;;5060244;28;20237;-70
2022/05/06 11:12:29;;;;;;;5.47;4.40;;;;;;;;;;5066716;28;20260;-68
2022/05/06 11:14:58;;;;;;;8.00;5.78;;;;;;;;;;5057836;28;20181;-68
2022/05/06 11:17:26;;;;;;;8.02;5.75;;;;;;;;;;5068508;28;20168;-68
2022/05/06 11:19:52;;;;;;;6.97;5.28;;;;;;;;;;5065914;28;20196;-68
2022/05/06 11:22:17;;;;;;;5.85;4.30;;;;;;;;;;5063627;28;20267;-67
2022/05/06 11:24:45;;;;;;;5.47;4.63;;;;;;;;;;5066366;28;20211;-67
2022/05/06 11:27:18;;;;;;;8.00;5.47;;;;;;;;;;5068745;28;20209;-67
2022/05/06 11:29:55;;;;;;;7.00;4.95;;;;;;;;;;5067591;28;20195;-68
2022/05/06 11:32:21;;;;;;;5.05;4.20;;;;;;;;;;5067886;28;20265;-68
2022/05/06 11:34:54;;;;;;;3.92;3.35;;;;;;;;;;5067686;28;20594;-68
2022/05/06 11:37:24;;;;;;;4.13;3.65;;;;;;;;;;5068360;28;20172;-67
2022/05/06 11:39:51;;;;;;;4.30;3.72;;;;;;;;;;5066812;28;20196;-68
2022/05/06 11:42:23;;;;;;;6.63;4.53;;;;;;;;;;5067971;28;20181;-67
2022/05/06 11:47:43;;;;;;;3.03;2.53;;;;;;;;;;5067499;28;20212;-68
2022/05/06 11:50:09;;;;;;;3.30;3.00;;;;;;;;;;5067990;28;20188;-67
2022/05/06 11:52:36;;;;;;;5.60;2.53;;;;;;;;;;5067574;28;20184;-68
2022/05/06 11:55:03;;;;;;;3.63;3.05;;;;;;;;;;5062219;28;20250;-67
2022/05/06 11:57:28;;;;;;;5.00;3.10;;;;;;;;;;5068040;28;20622;-68
2022/05/06 11:59:54;;;;;;;4.20;3.70;;;;;;;;;;5066483;28;20184;-67
2022/05/06 12:02:20;;;;;;;7.13;3.60;;;;;;;;;;5061406;28;20211;-67
2022/05/06 12:04:45;;;;;;;4.80;3.78;;;;;;;;;;5063052;28;20632;-67
2022/05/06 12:07:10;;;;;;;4.57;3.95;;;;;;;;;;5067688;28;20640;-68
2022/05/06 12:09:45;;;;;;;4.32;3.25;;;;;;;;;;5077538;28;20613;-68
2022/05/06 12:12:11;;;;;;;7.82;3.83;;;;;;;;;;5055397;28;20165;-69
2022/05/06 12:14:37;;;;;;;4.00;3.63;;;;;;;;;;5066488;28;20199;-68
2022/05/06 12:17:13;;;;;;;6.15;3.88;;;;;;;;;;5059904;28;20184;-67
2022/05/06 12:19:41;;;;;;;4.30;3.90;;;;;;;;;;5066754;28;20181;-68
2022/05/06 12:22:08;;;;;;;3.47;3.15;;;;;;;;;;5059380;28;20283;-68
2022/05/06 12:24:38;;;;;;;3.50;2.95;;;;;;;;;;5068238;28;20530;-68
2022/05/06 12:27:04;;;;;;;4.00;3.40;;;;;;;;;;5071262;28;20204;-68
2022/05/06 12:29:36;;;;;;;7.20;3.20;;;;;;;;;;5069991;28;20210;-67
2022/05/06 12:32:03;;;;;;;3.28;2.97;;;;;;;;;;5071287;28;20200;-68
2022/05/06 12:34:29;;;;;;;5.68;3.45;;;;;;;;;;5066301;28;20192;-68
2022/05/06 12:37:08;;;;;;;3.90;3.50;;;;;;;;;;5071725;28;20644;-68
2022/05/06 12:39:39;;;;;;;4.72;3.60;;;;;;;;;;5084464;28;20623;-68
2022/05/06 12:42:15;;;;;;;3.95;3.20;;;;;;;;;;5071046;28;20168;-68
2022/05/06 12:44:41;;;;;;;3.20;2.90;;;;;;;;;;5064452;28;20188;-67
2022/05/06 12:49:39;;;;;;;4.20;3.55;;;;;;;;;;5071415;28;20250;-68
2022/05/06 12:49:59;;;;;;;5.47;3.40;;;;;;;;;;5068283;28;21440;-67
2022/05/06 12:52:25;;;;;;;5.03;3.60;;;;;;;;;;5071537;28;20310;-66
2022/05/06 12:54:50;;;;;;;4.07;3.67;;;;;;;;;;5068007;28;20231;-66
2022/05/06 12:57:15;;;;;;;6.40;3.75;;;;;;;;;;5071037;28;20181;-66
2022/05/06 12:59:41;;;;;;;5.45;3.90;;;;;;;;;;5066938;28;20177;-66
2022/05/06 13:02:07;;;;;;;5.35;4.53;;;;;;;;;;5062569;28;20603;-67
2022/05/06 13:04:33;;;;;;;5.85;4.72;;;;;;;;;;5070537;28;20291;-67
2022/05/06 13:06:59;;;;;;;5.07;4.30;;;;;;;;;;5066855;28;20271;-66
2022/05/06 13:09:25;;;;;;;5.47;3.75;;;;;;;;;;5070743;28;20620;-67
2022/05/06 13:11:50;;;;;;;5.85;4.13;;;;;;;;;;5068686;28;20624;-67
2022/05/06 13:14:15;;;;;;;4.50;3.70;;;;;;;;;;5071671;28;20172;-67
2022/05/06 13:16:41;;;;;;;5.00;3.38;;;;;;;;;;5055018;28;20196;-68
2022/05/06 13:19:09;;;;;;;6.53;4.70;;;;;;;;;;5063186;28;20187;-67
2022/05/06 13:21:35;;;;;;;4.45;3.90;;;;;;;;;;5057965;28;20514;-67
2022/05/06 13:24:00;;;;;;;5.13;4.53;;;;;;;;;;5070574;28;20260;-68
2022/05/06 13:26:26;;;;;;;6.05;5.00;;;;;;;;;;5070595;28;20207;-67
2022/05/06 13:28:52;;;;;;;6.38;5.30;;;;;;;;;;5070942;28;20297;-68
2022/05/06 13:31:17;;;;;;;8.38;5.57;;;;;;;;;;5069716;28;20672;-67
2022/05/06 13:33:43;;;;;;;7.93;5.22;;;;;;;;;;5070835;28;20188;-67
2022/05/06 13:36:08;;;;;;;6.38;5.45;;;;;;;;;;5058442;28;20606;-67
2022/05/06 13:38:34;;;;;;;7.95;6.18;;;;;;;;;;5066829;28;20173;-67
2022/05/06 13:40:59;;;;;;;10.40;5.95;;;;;;;;;;5064822;28;20266;-67
2022/05/06 13:43:24;;;;;;;7.10;5.25;;;;;;;;;;5070747;28;20254;-68
2022/05/06 13:45:50;;;;;;;8.00;5.40;;;;;;;;;;5070262;28;20259;-67
2022/05/06 13:48:15;;;;;;;7.13;5.50;;;;;;;;;;5070599;28;20227;-68
2022/05/06 13:50:40;;;;;;;5.63;4.50;;;;;;;;;;5069626;28;20184;-67
2022/05/06 13:53:09;;;;;;;9.88;4.93;;;;;;;;;;5070300;28;20265;-69
2022/05/06 14:01:02;;;;;;;6.82;5.00;;;;;;;;;;5065382;28;20638;-68
2022/05/06 14:03:28;;;;;;;8.63;5.60;;;;;;;;;;5062864;28;20212;-68
2022/05/06 14:05:53;;;;;;;8.88;5.80;;;;;;;;;;5068944;28;20237;-68
2022/05/06 14:08:19;;;;;;;7.43;5.30;;;;;;;;;;5069962;28;20220;-68
2022/05/06 14:10:44;;;;;;;7.28;5.13;;;;;;;;;;5069824;28;20540;-66
2022/05/06 14:13:10;;;;;;;7.95;5.32;;;;;;;;;;5069325;28;20177;-67
2022/05/06 14:15:35;;;;;;;7.55;5.88;;;;;;;;;;5070763;28;20195;-67
2022/05/06 14:18:01;;;;;;;6.57;5.20;;;;;;;;;;5066865;28;20181;-67
2022/05/06 14:20:27;;;;;;;8.23;5.28;;;;;;;;;;5065866;28;20230;-67
2022/05/06 14:22:53;;;;;;;7.88;5.43;;;;;;;;;;5048791;28;20604;-67
2022/05/06 14:25:18;;;;;;;7.30;5.57;;;;;;;;;;5070978;28;20676;-67
2022/05/06 14:27:44;;;;;;;9.95;5.47;;;;;;;;;;5068570;28;20671;-67
2022/05/06 14:30:11;;;;;;;7.32;4.90;;;;;;;;;;5069010;28;20620;-68
2022/05/06 14:32:36;;;;;;;9.20;6.10;;;;;;;;;;5062569;28;20200;-67
2022/05/06 14:35:16;;;;;;;9.65;6.43;;;;;;;;;;5063837;28;20626;-68
2022/05/06 14:37:48;;;;;;;8.82;5.22;;;;;;;;;;5069155;28;20281;-68
2022/05/06 14:40:14;;;;;;;7.80;5.90;;;;;;;;;;5055404;28;20272;-67
2022/05/06 14:42:39;;;;;;;5.50;4.15;;;;;;;;;;5061995;28;20259;-68
2022/05/06 14:45:05;;;;;;;6.55;4.00;;;;;;;;;;5068225;28;20270;-68
2022/05/06 14:47:30;;;;;;;4.93;4.03;;;;;;;;;;5069586;28;20261;-68
2022/05/06 14:49:56;;;;;;;8.43;4.50;;;;;;;;;;5067390;28;20196;-68
2022/05/06 14:52:23;;;;;;;5.75;3.95;;;;;;;;;;5059006;28;20667;-68
2022/05/06 14:54:54;;;;;;;4.97;3.60;;;;;;;;;;5068183;28;20193;-68
2022/05/06 14:57:20;;;;;;;5.10;3.75;;;;;;;;;;5073778;28;20260;-68
2022/05/06 14:59:45;;;;;;;4.80;3.88;;;;;;;;;;5069220;28;20272;-68
2022/05/06 15:02:11;;;;;;;5.53;3.40;;;;;;;;;;5056943;28;20176;-68
2022/05/06 15:04:36;;;;;;;9.85;4.97;;;;;;;;;;5068462;28;20275;-67
2022/05/06 15:07:01;;;;;;;9.40;4.90;;;;;;;;;;5067508;28;20287;-68
2022/05/06 15:09:27;;;;;;;5.43;3.63;;;;;;;;;;5063978;28;20788;-67
2022/05/06 15:11:52;;;;;;;4.45;3.17;;;;;;;;;;5067241;28;20397;-68
2022/05/06 15:14:18;;;;;;;9.63;4.78;;;;;;;;;;5067594;28;20190;-67
2022/05/06 15:16:43;;;;;;;8.48;5.13;;;;;;;;;;5067684;28;20699;-70